createdAt,value
2023-02-16T00:01:49.329Z,101425.16
2023-02-16T00:04:18.157Z,101419.97
2023-02-16T00:06:44.593Z,101424.66
2023-02-16T00:09:11.091Z,101436.50
2023-02-16T00:11:56.210Z,101430.66
2023-02-16T00:14:26.289Z,101427.34
2023-02-16T00:16:54.955Z,101424.00
2023-02-16T00:19:35.057Z,101432.34
2023-02-16T00:22:02.498Z,101430.00
2023-02-16T00:24:30.511Z,101433.84
2023-02-16T00:26:58.065Z,101433.16
2023-02-16T00:29:30.674Z,101430.31
2023-02-16T00:31:58.878Z,101436.00
2023-02-16T00:34:41.482Z,101431.69
2023-02-16T00:37:10.655Z,101425.34
2023-02-16T00:39:38.707Z,101434.69
2023-02-16T00:42:12.071Z,101423.00
2023-02-16T00:44:44.259Z,101423.66
2023-02-16T00:47:32.320Z,101425.69
2023-02-16T00:49:59.131Z,101423.50
2023-02-16T00:52:36.018Z,101421.66
2023-02-16T00:55:09.310Z,101413.34
2023-02-16T00:57:41.477Z,101415.66
2023-02-16T01:00:10.859Z,101412.34
2023-02-16T01:02:37.291Z,101407.66
2023-02-16T01:05:04.479Z,101408.50
2023-02-16T01:07:49.770Z,101406.00
2023-02-16T01:10:37.334Z,101409.34
2023-02-16T01:13:04.412Z,101410.34
2023-02-16T01:15:30.988Z,101399.84
2023-02-16T01:17:57.612Z,101399.84
2023-02-16T01:20:26.108Z,101402.34
2023-02-16T01:22:52.549Z,101390.69
2023-02-16T01:25:19.141Z,101384.16
2023-02-16T01:27:46.437Z,101385.34
2023-02-16T01:30:16.351Z,101374.69
2023-02-16T01:32:42.900Z,101373.19
2023-02-16T01:35:10.396Z,101373.31
2023-02-16T01:37:36.912Z,101369.19
2023-02-16T01:40:04.101Z,101378.00
2023-02-16T01:42:41.361Z,101388.31
2023-02-16T01:45:19.877Z,101391.69
2023-02-16T01:48:01.766Z,101387.16
2023-02-16T01:50:41.850Z,101378.00
2023-02-16T01:53:37.426Z,101371.34
2023-02-16T01:56:06.991Z,101371.50
2023-02-16T01:58:44.478Z,101365.00
2023-02-16T02:01:39.542Z,101368.00
2023-02-16T02:04:44.239Z,101362.00
2023-02-16T02:07:17.918Z,101362.66
2023-02-16T02:09:55.727Z,101372.97
2023-02-16T02:12:32.851Z,101362.19
2023-02-16T02:14:59.379Z,101355.81
2023-02-16T02:17:27.679Z,101363.81
2023-02-16T02:19:59.844Z,101360.16
2023-02-16T02:22:57.029Z,101354.66
2023-02-16T02:26:11.844Z,101357.34
2023-02-16T02:29:02.582Z,101365.50
2023-02-16T02:32:04.703Z,101369.31
2023-02-16T02:35:08.911Z,101353.69
2023-02-16T02:37:56.257Z,101346.00
2023-02-16T02:40:28.772Z,101358.66
2023-02-16T02:43:17.737Z,101339.66
2023-02-16T02:45:49.674Z,101342.50
2023-02-16T02:48:16.249Z,101327.66
2023-02-16T02:51:23.466Z,101339.16
2023-02-16T02:54:15.231Z,101342.50
2023-02-16T02:57:06.666Z,101337.16
2023-02-16T02:59:56.504Z,101333.50
2023-02-16T03:02:25.181Z,101339.66
2023-02-16T03:04:54.017Z,101333.81
2023-02-16T03:07:43.360Z,101343.31
2023-02-16T03:10:28.738Z,101337.47
2023-02-16T03:12:57.827Z,101329.34
2023-02-16T03:15:26.199Z,101323.16
2023-02-16T03:18:13.932Z,101334.50
2023-02-16T03:21:02.099Z,101328.31
2023-02-16T03:23:48.165Z,101324.16
2023-02-16T03:26:34.346Z,101334.81
2023-02-16T03:29:21.647Z,101323.16
2023-02-16T03:31:49.834Z,101328.66
2023-02-16T03:34:37.362Z,101334.97
2023-02-16T03:37:05.283Z,101324.31
2023-02-16T03:39:32.727Z,101344.31
2023-02-16T03:41:59.283Z,101335.31
2023-02-16T03:44:25.808Z,101337.00
2023-02-16T03:46:52.391Z,101334.34
2023-02-16T03:49:19.787Z,101346.81
2023-02-16T03:51:47.030Z,101338.97
2023-02-16T03:54:13.629Z,101328.66
2023-02-16T03:56:40.201Z,101346.63
2023-02-16T03:59:06.710Z,101349.13
2023-02-16T04:01:33.269Z,101328.31
2023-02-16T04:03:59.772Z,101330.97
2023-02-16T04:06:26.468Z,101338.28
2023-02-16T04:08:53.065Z,101330.63
2023-02-16T04:11:38.273Z,101335.31
2023-02-16T04:14:04.741Z,101334.97
2023-02-16T04:16:31.234Z,101343.25
2023-02-16T04:18:57.709Z,101347.75
2023-02-16T04:21:24.187Z,101343.59
2023-02-16T04:23:50.662Z,101332.94
2023-02-16T04:26:17.121Z,101337.44
2023-02-16T04:28:43.720Z,101331.28
2023-02-16T04:31:10.237Z,101332.28
2023-02-16T04:33:36.791Z,101337.75
2023-02-16T04:36:03.348Z,101329.94
2023-02-16T04:38:29.772Z,101337.75
2023-02-16T04:40:56.254Z,101336.09
2023-02-16T04:43:22.790Z,101324.59
2023-02-16T04:45:49.291Z,101329.94
2023-02-16T04:48:15.774Z,101329.09
2023-02-16T04:50:42.225Z,101328.25
2023-02-16T04:53:08.690Z,101339.75
2023-02-16T04:55:35.157Z,101335.25
2023-02-16T04:58:01.665Z,101326.63
2023-02-16T05:00:28.897Z,101322.94
2023-02-16T05:02:55.353Z,101317.94
2023-02-16T05:05:21.850Z,101327.59
2023-02-16T05:07:48.342Z,101319.63
2023-02-16T05:10:14.809Z,101328.59
2023-02-16T05:13:00.118Z,101325.94
2023-02-16T05:15:26.547Z,101312.16
2023-02-16T05:17:53.062Z,101325.00
2023-02-16T05:20:19.544Z,101324.81
2023-02-16T05:22:46.495Z,101314.94
2023-02-16T05:25:13.414Z,101320.53
2023-02-16T05:27:39.917Z,101317.47
2023-02-16T05:30:07.004Z,101309.56
2023-02-16T05:32:33.499Z,101294.72
2023-02-16T05:35:00.156Z,101292.69
2023-02-16T05:37:26.595Z,101290.84
2023-02-16T05:39:53.289Z,101295.44
2023-02-16T05:42:19.767Z,101317.16
2023-02-16T05:44:46.194Z,101307.19
2023-02-16T05:47:12.750Z,101311.22
2023-02-16T05:49:39.277Z,101317.28
2023-02-16T05:52:05.860Z,101321.47
2023-02-16T05:54:32.387Z,101324.47
2023-02-16T05:56:58.865Z,101331.00
2023-02-16T05:59:25.412Z,101318.66
2023-02-16T06:01:52.688Z,101322.34
2023-02-16T06:04:20.534Z,101323.34
2023-02-16T06:06:47.596Z,101318.19
2023-02-16T06:09:14.243Z,101333.00
2023-02-16T06:11:40.744Z,101324.16
2023-02-16T06:14:13.502Z,101332.47
2023-02-16T06:16:42.207Z,101329.13
2023-02-16T06:19:09.376Z,101327.28
2023-02-16T06:21:36.912Z,101322.63
2023-02-16T06:24:04.043Z,101318.47
2023-02-16T06:26:30.703Z,101318.97
2023-02-16T06:28:57.356Z,101311.34
2023-02-16T06:31:25.464Z,101308.69
2023-02-16T06:33:53.026Z,101325.66
2023-02-16T06:36:20.148Z,101320.50
2023-02-16T06:38:47.006Z,101321.19
2023-02-16T06:41:13.574Z,101320.00
2023-02-16T06:43:40.076Z,101320.03
2023-02-16T06:46:06.709Z,101314.19
2023-02-16T06:48:33.333Z,101315.69
2023-02-16T06:50:59.831Z,101311.69
2023-02-16T06:53:26.367Z,101313.84
2023-02-16T06:55:52.905Z,101314.31
2023-02-16T06:58:19.449Z,101313.66
2023-02-16T07:00:45.970Z,101316.66
2023-02-16T07:03:12.656Z,101320.31
2023-02-16T07:05:39.203Z,101324.13
2023-02-16T07:08:05.702Z,101328.63
2023-02-16T07:10:47.511Z,101332.94
2023-02-16T07:13:15.905Z,101333.47
2023-02-16T07:15:42.354Z,101336.59
2023-02-16T07:18:08.837Z,101327.28
2023-02-16T07:20:35.312Z,101334.28
2023-02-16T07:23:01.802Z,101327.97
2023-02-16T07:25:28.716Z,101334.28
2023-02-16T07:27:55.390Z,101326.97
2023-02-16T07:30:22.325Z,101336.13
2023-02-16T07:32:48.843Z,101337.63
2023-02-16T07:35:15.265Z,101342.63
2023-02-16T07:37:41.773Z,101349.63
2023-02-16T07:40:08.868Z,101346.28
2023-02-16T07:42:35.360Z,101353.28
2023-02-16T07:45:01.844Z,101366.59
2023-02-16T07:47:28.299Z,101369.25
2023-02-16T07:49:54.866Z,101359.41
2023-02-16T07:52:21.354Z,101361.94
2023-02-16T07:54:47.899Z,101363.59
2023-02-16T07:57:14.369Z,101369.09
2023-02-16T07:59:40.942Z,101359.41
2023-02-16T08:02:07.573Z,101364.44
2023-02-16T08:04:34.525Z,101361.94
2023-02-16T08:07:01.261Z,101357.09
2023-02-16T08:09:27.709Z,101349.78
2023-02-16T08:11:54.285Z,101357.63
2023-02-16T08:14:20.763Z,101355.47
2023-02-16T08:16:48.516Z,101353.97
2023-02-16T08:19:16.775Z,101355.31
2023-02-16T08:21:47.375Z,101351.66
2023-02-16T08:24:13.866Z,101349.81
2023-02-16T08:26:43.171Z,101348.47
2023-02-16T08:29:10.229Z,101357.16
2023-02-16T08:31:38.426Z,101359.13
2023-02-16T08:34:05.823Z,101356.31
2023-02-16T08:36:34.866Z,101371.31
2023-02-16T08:39:04.241Z,101371.31
2023-02-16T08:41:33.633Z,101365.31
2023-02-16T08:44:00.919Z,101361.97
2023-02-16T08:46:29.297Z,101360.63
2023-02-16T08:49:00.417Z,101359.31
2023-02-16T08:51:29.196Z,101352.31
2023-02-16T08:54:00.276Z,101360.97
2023-02-16T08:56:29.742Z,101366.66
2023-02-16T08:58:57.204Z,101368.28
2023-02-16T09:01:23.912Z,101369.97
2023-02-16T09:03:50.446Z,101365.00
2023-02-16T09:06:21.434Z,101357.97
2023-02-16T09:08:57.482Z,101369.81
2023-02-16T09:11:25.597Z,101365.63
2023-02-16T09:13:52.078Z,101371.63
2023-02-16T09:16:22.503Z,101370.16
2023-02-16T09:18:49.397Z,101356.00
2023-02-16T09:21:17.708Z,101366.66
2023-02-16T09:23:48.214Z,101339.84
2023-02-16T09:26:19.363Z,101330.34
2023-02-16T09:28:47.277Z,101323.66
2023-02-16T09:31:23.739Z,101338.53
2023-02-16T09:33:50.250Z,101331.31
2023-02-16T09:36:17.359Z,101330.97
2023-02-16T09:41:27.905Z,101334.13
2023-02-16T09:44:29.755Z,101336.59
2023-02-16T09:46:58.838Z,101339.25
2023-02-16T09:49:37.915Z,101341.25
2023-02-16T09:52:19.801Z,101336.50
2023-02-16T09:54:51.534Z,101342.16
2023-02-16T09:57:49.166Z,101344.94
2023-02-16T10:00:51.297Z,101335.56
2023-02-16T10:03:41.433Z,101352.59
2023-02-16T18:39:29.445Z,101085.59
2023-02-16T18:41:55.981Z,101088.03
2023-02-16T18:44:22.510Z,101081.84
2023-02-16T18:46:49.074Z,101078.56
2023-02-16T18:49:15.594Z,101075.88
2023-02-16T18:51:42.140Z,101074.19
2023-02-16T18:54:08.677Z,101075.88
2023-02-16T18:56:37.345Z,101074.41
2023-02-16T18:59:04.403Z,101065.72
2023-02-16T19:01:32.722Z,101067.38
2023-02-16T19:04:00.860Z,101057.03
2023-02-16T19:06:27.994Z,101059.53
2023-02-16T19:08:54.691Z,101061.38
2023-02-16T19:11:21.246Z,101059.44
2023-02-16T19:13:48.600Z,101056.63
2023-02-16T19:16:16.432Z,101060.75
2023-02-16T19:18:43.227Z,101047.72
2023-02-16T19:21:10.943Z,101044.13
2023-02-16T19:23:37.833Z,101047.34
2023-02-16T19:26:12.845Z,101048.34
2023-02-16T19:28:39.988Z,101039.47
2023-02-16T19:31:09.358Z,101049.56
2023-02-16T19:33:35.956Z,101044.41
2023-02-16T19:36:08.624Z,101047.31
2023-02-16T19:38:35.926Z,101047.91
2023-02-16T19:41:10.800Z,101036.56
2023-02-16T19:43:37.429Z,101040.88
2023-02-16T19:46:05.682Z,101041.28
2023-02-16T19:48:32.455Z,101036.72
2023-02-16T19:51:00.965Z,101036.34
2023-02-16T19:53:28.271Z,101036.56
2023-02-16T19:55:54.856Z,101033.88
2023-02-16T19:58:22.710Z,101028.50
2023-02-16T20:00:49.507Z,101020.63
2023-02-16T20:03:16.208Z,101020.13
2023-02-16T20:05:43.218Z,101022.72
2023-02-16T20:08:10.296Z,101017.31
2023-02-16T20:10:43.953Z,101014.44
2023-02-16T20:13:11.263Z,101013.19
2023-02-16T20:15:37.803Z,101012.38
2023-02-16T20:18:06.005Z,101017.91
2023-02-16T20:20:32.576Z,101006.56
2023-02-16T20:22:59.072Z,101012.53
2023-02-16T20:25:25.795Z,101004.91
2023-02-16T20:27:52.564Z,100999.34
2023-02-16T20:30:20.983Z,100993.88
2023-02-16T20:32:48.457Z,100982.00
2023-02-16T20:35:15.292Z,100985.09
2023-02-16T20:37:41.899Z,100993.34
2023-02-16T20:40:08.885Z,100992.72
2023-02-16T20:42:35.645Z,100984.66
2023-02-16T20:45:03.508Z,100983.50
2023-02-16T20:47:30.071Z,100981.41
2023-02-16T20:49:56.590Z,100981.78
2023-02-16T20:52:23.178Z,100966.31
2023-02-16T20:54:49.683Z,100964.06
2023-02-16T20:57:26.429Z,100972.25
2023-02-16T20:59:54.423Z,100975.56
2023-02-16T21:02:20.991Z,100978.47
2023-02-16T21:04:47.544Z,100979.28
2023-02-16T21:07:14.136Z,100997.25
2023-02-16T21:09:40.635Z,100974.56
2023-02-16T21:12:07.178Z,100984.66
2023-02-16T21:14:33.763Z,100988.34
2023-02-16T21:17:00.698Z,101009.00
2023-02-16T21:19:27.198Z,100995.78
2023-02-16T21:21:53.728Z,100997.44
2023-02-16T21:24:20.787Z,100996.41
2023-02-16T21:26:47.427Z,100993.72
2023-02-16T21:29:17.041Z,100990.66
2023-02-16T21:31:43.716Z,100989.19
2023-02-16T21:34:10.181Z,100978.97
2023-02-16T21:36:37.732Z,100977.63
2023-02-16T21:39:05.198Z,100970.81
2023-02-16T21:41:31.723Z,100967.31
2023-02-16T21:44:10.142Z,100969.41
2023-02-16T21:46:42.247Z,100971.47
2023-02-16T21:49:12.795Z,100968.56
2023-02-16T21:51:41.007Z,100987.56
2023-02-16T21:54:14.424Z,100971.03
2023-02-16T21:56:50.235Z,100956.59
2023-02-16T21:59:19.034Z,100953.31
2023-02-16T22:01:48.079Z,100954.13
2023-02-16T22:04:18.731Z,100959.94
2023-02-16T22:06:47.402Z,100965.28
2023-02-16T22:09:19.066Z,100955.16
2023-02-16T22:11:46.587Z,100952.50
2023-02-16T22:14:13.905Z,100952.50
2023-02-16T22:16:40.941Z,100948.38
2023-02-16T22:19:16.349Z,100952.72
2023-02-16T22:21:44.993Z,100941.38
2023-02-16T22:24:14.008Z,100938.50
2023-02-16T22:26:40.854Z,100934.78
2023-02-16T22:29:08.787Z,100937.25
2023-02-16T22:31:36.155Z,100936.03
2023-02-16T22:34:06.325Z,100938.91
2023-02-16T22:36:33.410Z,100936.22
2023-02-16T22:39:00.114Z,100934.16
2023-02-16T22:41:27.072Z,100930.94
2023-02-16T22:43:55.796Z,100930.25
2023-02-16T22:46:23.910Z,100925.91
2023-02-16T22:48:51.020Z,100926.94
2023-02-16T22:51:19.470Z,100925.69
2023-02-16T22:53:46.420Z,100931.06
2023-02-16T22:56:15.908Z,100921.59
2023-02-16T22:58:42.732Z,100929.06
2023-02-16T23:01:17.151Z,100924.72
2023-02-16T23:03:49.826Z,100922.03
2023-02-16T23:06:22.814Z,100925.34
2023-02-16T23:08:59.045Z,100915.00
2023-02-16T23:11:26.995Z,100915.00
2023-02-16T23:13:53.875Z,100904.25
2023-02-16T23:16:23.261Z,100908.19
2023-02-16T23:18:50.718Z,100906.78
2023-02-16T23:21:24.665Z,100915.84
2023-02-16T23:23:52.381Z,100910.88
2023-02-16T23:26:21.076Z,100901.78
2023-02-16T23:28:51.659Z,100896.84
2023-02-16T23:31:18.579Z,100888.34
2023-02-16T23:33:45.099Z,100891.03
2023-02-16T23:36:11.765Z,100889.00
2023-02-16T23:38:38.301Z,100883.63
2023-02-16T23:41:09.019Z,100883.19
2023-02-16T23:43:35.790Z,100876.38
2023-02-16T23:46:03.405Z,100873.06
2023-02-16T23:48:31.306Z,100878.66
2023-02-16T23:50:58.361Z,100871.00
2023-02-16T23:53:27.105Z,100874.53
2023-02-16T23:56:14.514Z,100872.06
2023-02-16T23:58:42.772Z,100872.44
